• Join FlightAware (Why Join?)
  • Login
  • US Flag 
10:49PM EDT


 

Airport Tracker/Info


-or-


 

Live Flight TrackerFlight Track Log ✈ AFL150 ✈ 30-Jul-2013 ✈ UUEE / SVO - MUHA / HAV

Flight Track Log - Related Links

Times and Time Zones

All times are in EDT time to prevent confusion due to time zone crossing. See the AFL150 flight status page for this flight to view local times or setup timezone preferences in your user account.

Time Position Orientation Groundspeed Altitude Reporting Facility
EDT Latitude Longitude Course Direction KTS MPH feet Rate Location/Type
06:23AM 55.9780 37.4640 75° East 184 212 1,700  Level FlightAware
06:23AM 55.9830 37.4920 72° East 180 207 2,600 1,800 Climbing FlightAware
06:23AM 55.9870 37.5220 77° East 197 227 2,900 1,020 Climbing FlightAware
06:24AM 55.9920 37.5560 75° East 219 252 3,300 1,200 Climbing FlightAware
06:24AM 55.9990 37.6030 75° East 247 284 3,800 1,560 Climbing FlightAware
06:24AM 56.0050 37.6420 75° East 253 291 4,500 2,520 Climbing FlightAware
06:25AM 56.0110 37.6840 76° East 254 292 5,500 2,640 Climbing FlightAware
06:25AM 56.0160 37.7140 73° East 255 293 6,100 2,400 Climbing FlightAware
06:25AM 56.0190 37.7230 59° Northeast 256 295 6,300 2,640 Climbing FlightAware
06:25AM 56.0230 37.7310 48° Northeast 258 297 6,500 2,400 Climbing FlightAware
06:25AM 56.0320 37.7410 32° Northeast 260 299 6,900 2,400 Climbing FlightAware
06:25AM 56.0390 37.7460 22° Northeast 263 303 7,100 1,980 Climbing FlightAware
06:25AM 56.0510 37.7480 North 272 313 7,400 1,980 Climbing FlightAware
06:26AM 56.0570 37.7460 349° North 275 316 7,600 2,400 Climbing FlightAware
06:26AM 56.0640 37.7430 347° North 279 321 7,800 2,400 Climbing FlightAware
06:26AM 56.0750 37.7310 329° Northwest 284 327 8,200 2,400 Climbing FlightAware
06:26AM 56.0840 37.7140 313° West 290 334 8,600 2,400 Climbing FlightAware
06:26AM 56.0890 37.6920 292° West 297 342 9,000 2,100 Climbing FlightAware
06:26AM 56.0910 37.6670 278° West 302 348 9,300 2,100 Climbing FlightAware
06:27AM 56.0810 37.5920 257° West 314 361 10,400 1,620 Climbing FlightAware
06:27AM 56.0670 37.5010 255° West 343 395 11,100 1,860 Climbing FlightAware
06:28AM 56.0660 37.3630 269° West 332 382 13,100 2,220 Climbing FlightAware
06:29AM 56.0890 37.2590 292° West 345 397 14,500 2,100 Climbing FlightAware
06:29AM 56.1040 37.1770 288° West 349 402 15,600 2,160 Climbing FlightAware
06:30AM 56.1280 37.0540 289° West 353 406 17,200 1,860 Climbing FlightAware
06:31AM 56.1500 36.9400 289° West 364 419 18,300 1,680 Climbing FlightAware
06:31AM 56.1690 36.8390 289° West 372 428 19,300 1,800 Climbing FlightAware
06:32AM 56.1890 36.7380 290° West 374 430 20,400 1,680 Climbing FlightAware
06:33AM 56.2090 36.6350 289° West 381 438 21,300 1,620 Climbing FlightAware
06:33AM 56.2280 36.5290 288° West 382 440 22,300 1,500 Climbing FlightAware
06:34AM 56.2490 36.4220 289° West 390 449 23,100 1,320 Climbing FlightAware
06:34AM 56.2690 36.3150 289° West 396 456 23,900 1,380 Climbing FlightAware
06:35AM 56.2870 36.2190 289° West 401 461 24,600 1,440 Climbing FlightAware
06:35AM 56.3100 36.0940 288° West 401 461 25,600 1,440 Climbing FlightAware
06:36AM 56.3300 35.9830 288° West 402 463 26,400 1,260 Climbing FlightAware
06:37AM 56.3500 35.8740 288° West 406 467 27,100 1,020 Climbing FlightAware
06:37AM 56.3720 35.7590 289° West 413 475 27,600 840 Climbing FlightAware
06:38AM 56.3920 35.6430 287° West 421 484 28,100 900 Climbing FlightAware
06:38AM 56.4130 35.5290 288° West 424 488 28,700 1,200 Climbing FlightAware
06:39AM 56.4360 35.4090 289° West 420 483 29,500 1,320 Climbing FlightAware
06:40AM 56.4670 35.3010 297° West 408 470 30,300 1,020 Climbing FlightAware
06:40AM 56.5060 35.2060 307° West 407 468 30,700 840 Climbing FlightAware
06:41AM 56.5520 35.1220 315° West 401 461 31,300 840 Climbing FlightAware
06:41AM 56.6020 35.0550 324° Northwest 396 456 31,700 660 Climbing FlightAware
06:42AM 56.6600 35.0000 332° Northwest 396 456 32,100 600 Climbing FlightAware
06:42AM 56.7190 34.9630 341° North 395 455 32,400 600 Climbing FlightAware
06:43AM 56.7830 34.9430 350° North 395 455 32,800 660 Climbing FlightAware
06:44AM 56.8660 34.9410 359° North 397 457 33,300 600 Climbing FlightAware
06:44AM 56.9210 34.9460 North 400 460 33,600 600 Climbing FlightAware
06:45AM 56.9850 34.9500 North 402 463 34,000 300 Climbing FlightAware
06:45AM 57.0520 34.9520 North 411 473 34,000  Level FlightAware
06:46AM 57.1280 34.9550 North 413 475 34,000  Level FlightAware
06:47AM 57.1840 34.9560 North 412 474 34,000  Level FlightAware
06:47AM 57.2600 34.9580 North 412 474 34,000  Level FlightAware
06:48AM 57.3270 34.9600 North 412 474 34,000  Level FlightAware
06:48AM 57.3840 34.9620 North 414 476 34,000  Level FlightAware
06:49AM 57.4610 34.9650 North 426 490 34,000  Level FlightAware
06:50AM 57.5210 34.9660 North 428 493 34,000  Level FlightAware
06:50AM 57.5500 34.9670 North 428 493 34,000  Level FlightAware
06:50AM 57.6280 34.9540 355° North 428 493 34,000  Level FlightAware
06:51AM 57.6860 34.9300 348° North 428 493 34,000  Level FlightAware
06:52AM 57.7510 34.8880 341° North 430 495 34,000  Level FlightAware
06:52AM 57.8150 34.8270 333° Northwest 431 496 34,000  Level FlightAware
06:53AM 57.8710 34.7550 326° Northwest 432 497 34,000  Level FlightAware
06:53AM 57.9280 34.6770 324° Northwest 431 496 34,000  Level FlightAware
06:54AM 57.9840 34.5980 323° Northwest 431 496 34,000  Level FlightAware
06:54AM 58.0310 34.5320 323° Northwest 433 498 34,000  Level FlightAware
06:55AM 58.0950 34.4420 323° Northwest 435 501 34,000  Level FlightAware
06:56AM 58.1520 34.3620 323° Northwest 435 501 34,000  Level FlightAware
06:56AM 58.2000 34.2920 322° Northwest 437 503 34,000  Level FlightAware
06:57AM 58.2620 34.1950 321° Northwest 438 504 34,000  Level FlightAware
06:57AM 58.3170 34.1100 321° Northwest 440 506 34,000  Level FlightAware
06:58AM 58.3700 34.0280 321° Northwest 440 506 34,000  Level FlightAware
06:59AM 58.4520 33.9030 321° Northwest 439 505 34,000  Level FlightAware
07:00AM 58.5230 33.7920 321° Northwest 439 505 34,000  Level FlightAware
07:00AM 58.5710 33.7170 321° Northwest 439 505 34,000  Level FlightAware
07:01AM 58.6200 33.6420 321° Northwest 439 505 34,000  Level FlightAware
07:02AM 58.6690 33.5650 321° Northwest 439 505 34,000  Level FlightAware
07:02AM 58.7360 33.4600 321° Northwest 439 505 34,000  Level FlightAware
07:03AM 58.8020 33.3580 321° Northwest 439 505 34,000  Level FlightAware
07:04AM 58.8520 33.2800 321° Northwest 439 505 34,000  Level FlightAware
07:04AM 58.9000 33.2040 321° Northwest 439 505 34,000  Level FlightAware
07:05AM 58.9480 33.1290 321° Northwest 439 505 34,000  Level FlightAware
07:06AM 58.9970 33.0530 321° Northwest 439 505 34,000  Level FlightAware
07:06AM 59.0990 32.7520 312° West 445 512 34,000  Level FlightAware
07:07AM 59.1340 32.6470 303° West 452 520 34,000  Level FlightAware
07:07AM 59.1620 32.4510 286° West 456 525 34,000  Level FlightAware
07:08AM 59.1820 32.3060 285° West 455 524 34,000  Level FlightAware
07:09AM 59.2050 32.1330 285° West 455 524 34,000  Level FlightAware
07:09AM 59.2230 31.9980 285° West 456 525 34,000  Level FlightAware
07:10AM 59.2410 31.8590 284° West 456 525 34,000  Level FlightAware
07:11AM 59.2600 31.7170 285° West 456 525 34,000  Level FlightAware
07:11AM 59.2790 31.5790 285° West 456 525 34,000  Level FlightAware
07:12AM 59.3000 31.4180 284° West 456 525 34,000  Level FlightAware
07:12AM 59.3150 31.2990 284° West 457 526 34,000  Level FlightAware
07:13AM 59.3330 31.1590 284° West 458 527 34,000  Level FlightAware
07:13AM 59.3510 31.0180 284° West 458 527 34,000  Level FlightAware
07:14AM 59.3710 30.8570 284° West 459 528 34,000  Level FlightAware
07:15AM 59.3860 30.7400 284° West 459 528 34,000  Level FlightAware
07:15AM 59.4030 30.5960 283° West 459 528 34,000  Level FlightAware
07:16AM 59.4200 30.4580 284° West 459 528 34,000  Level FlightAware
07:16AM 59.4400 30.2930 283° West 456 525 34,000  Level FlightAware
07:17AM 59.4540 30.1730 283° West 453 521 34,000  Level FlightAware
07:18AM 59.4700 30.0450 284° West 452 520 34,000  Level FlightAware
07:18AM 59.4870 29.8930 282° West 454 522 34,000  Level FlightAware
07:19AM 59.5060 29.7330 283° West 456 525 34,000  Level FlightAware
07:19AM 59.5200 29.6150 283° West 457 526 34,000  Level FlightAware
07:20AM 59.5360 29.4710 282° West 459 528 34,000  Level FlightAware
07:20AM 59.5520 29.3300 283° West 461 531 34,000  Level FlightAware
07:21AM 59.5650 29.2140 283° West 461 531 34,000  Level FlightAware
07:22AM 59.5810 29.0700 282° West 462 532 34,000  Level FlightAware
07:22AM 59.5990 28.9040 282° West 463 533 34,000  Level FlightAware
07:23AM 59.6130 28.7780 282° West 461 531 34,000  Level FlightAware
07:24AM 59.6430 28.5660 286° West 461 531 34,000  Level FlightAware
07:24AM 59.6620 28.4380 286° West 461 531 34,000  Level FlightAware
07:25AM 59.6850 28.2810 286° West 461 531 34,000  Level FlightAware
07:25AM 59.7050 28.1380 286° West 460 529 34,000  Level FlightAware
07:26AM 59.7230 28.0090 286° West 459 528 34,000  Level FlightAware
07:26AM 59.7440 27.8640 286° West 457 526 34,000  Level FlightAware
07:27AM 59.7630 27.7220 285° West 457 526 34,000  Level FlightAware
07:28AM 59.7840 27.5730 286° West 457 526 34,000  Level FlightAware
07:28AM 59.8010 27.4490 285° West 456 525 34,000  Level FlightAware
07:29AM 59.8220 27.2930 285° West 456 525 34,000  Level FlightAware
07:29AM 59.8400 27.1610 285° West 455 524 34,000  Level FlightAware
07:30AM 59.8590 27.0180 285° West 455 524 34,000  Level FlightAware
07:31AM 59.8780 26.8690 284° West 455 524 34,000  Level FlightAware
07:31AM 59.8980 26.7220 285° West 456 525 34,000  Level FlightAware
07:32AM 59.9140 26.5930 284° West 456 525 34,000  Level FlightAware
07:32AM 59.9330 26.4490 285° West 457 526 34,000  Level FlightAware
07:33AM 59.9580 26.3080 290° West 457 526 34,000  Level FlightAware
07:33AM 59.9890 26.1800 296° West 458 527 34,000  Level FlightAware
07:34AM 60.0300 26.0560 304° West 459 528 34,000  Level FlightAware
07:35AM 60.0670 25.9270 300° West 458 527 34,000  Level FlightAware
07:35AM 60.1030 25.7940 299° West 459 528 34,000  Level FlightAware
07:36AM 60.1360 25.6720 299° West 461 531 34,000  Level FlightAware
07:36AM 60.1720 25.5370 298° West 461 531 34,000  Level FlightAware
07:37AM 60.2080 25.4020 298° West 461 531 34,000  Level FlightAware
07:38AM 60.2450 25.2640 298° West 462 532 34,000  Level FlightAware
07:38AM 60.2770 25.1430 298° West 463 533 34,000  Level FlightAware
07:39AM 60.3140 25.0050 298° West 466 536 34,000  Level FlightAware
07:39AM 60.3490 24.8680 297° West 467 537 34,000  Level FlightAware
07:40AM 60.3690 24.7940 299° West 467 537 34,000  Level FlightAware
07:40AM 60.4170 24.6090 298° West 466 536 34,000  Level FlightAware
07:41AM 60.4460 24.4940 297° West 464 534 34,000  Level FlightAware
07:42AM 60.4890 24.3260 298° West 461 531 34,000  Level FlightAware
07:43AM 60.5390 24.1290 297° West 456 525 34,000  Level FlightAware
07:43AM 60.5730 23.9960 298° West 455 524 34,000  Level FlightAware
07:44AM 60.6050 23.8660 297° West 455 524 34,000  Level FlightAware
07:44AM 60.6390 23.7280 297° West 455 524 34,000  Level FlightAware
07:45AM 60.6690 23.6080 297° West 455 524 34,000  Level FlightAware
07:45AM 60.7040 23.4670 297° West 458 527 34,000  Level FlightAware
07:46AM 60.7390 23.3250 297° West 459 528 34,000  Level FlightAware
07:47AM 60.7740 23.1810 297° West 459 528 34,000  Level FlightAware
07:47AM 60.8010 23.0660 296° West 459 528 34,000  Level FlightAware
07:48AM 60.8560 22.8380 296° West 460 529 34,000  Level FlightAware
07:49AM 60.8860 22.7120 296° West 460 529 34,000  Level FlightAware
07:49AM 60.9220 22.5590 296° West 459 528 34,000  Level FlightAware
07:50AM 60.9550 22.4170 296° West 460 529 34,000  Level FlightAware
07:51AM 60.9930 22.2530 296° West 462 532 34,000  Level FlightAware
07:51AM 61.0230 22.1250 296° West 464 534 34,000  Level FlightAware
07:52AM 61.0560 21.9850 296° West 467 537 34,000  Level FlightAware
07:52AM 61.0960 21.8480 301° West 470 541 34,000  Level FlightAware
07:53AM 61.1360 21.7190 303° West 470 541 34,000  Level FlightAware
07:53AM 61.1730 21.5980 302° West 470 541 34,000  Level FlightAware
07:54AM 61.2180 21.4480 302° West 469 540 34,000  Level FlightAware
07:55AM 61.2650 21.2890 302° West 471 542 34,000  Level FlightAware
07:55AM 61.3070 21.1450 301° West 472 543 34,000  Level FlightAware
07:56AM 61.3430 21.0220 301° West 471 542 34,000  Level FlightAware
07:57AM 61.3850 20.8780 301° West 471 542 34,000  Level FlightAware
07:57AM 61.4250 20.7410 301° West 471 542 34,000  Level FlightAware
07:58AM 61.4660 20.5980 301° West 470 541 34,000  Level FlightAware
07:58AM 61.5020 20.4710 301° West 471 542 34,000  Level FlightAware
07:59AM 61.5370 20.3490 301° West 472 543 34,000  Level FlightAware
07:59AM 61.5760 20.2100 301° West 472 543 34,000  Level FlightAware
07:59AM 61.5790 20.2010 305° West 473 544 34,000  Level FlightAware
08:01AM 61.6600 19.9100 300° West 472 543 34,000  Level FlightAware
08:01AM 61.6930 19.7920 301° West 471 542 34,000  Level FlightAware
08:02AM 61.7360 19.6370 300° West 471 542 34,000  Level FlightAware
08:03AM 61.7900 19.4350 300° West 469 540 34,000  Level FlightAware
08:03AM 61.8240 19.2920 297° West 468 539 34,000  Level FlightAware
08:04AM 61.8580 19.1500 297° West 470 541 34,000  Level FlightAware
08:04AM 61.8890 19.0000 294° West 463 533 34,000  Level FlightAware
08:05AM 61.9140 18.8660 292° West 464 534 34,000  Level FlightAware
08:05AM 61.9400 18.7320 292° West 465 535 34,000  Level FlightAware
08:06AM 61.9710 18.5650 292° West 465 535 34,000  Level FlightAware
08:07AM 61.9990 18.4180 292° West 464 534 34,000  Level FlightAware
08:07AM 62.0290 18.2530 291° West 465 535 34,000  Level FlightAware
08:08AM 62.0540 18.1200 292° West 465 535 34,000  Level FlightAware
08:09AM 62.0840 17.9540 291° West 464 534 34,000  Level FlightAware
08:09AM 62.1070 17.8270 291° West 462 532 34,000  Level FlightAware
08:10AM 62.1370 17.6610 291° West 462 532 34,000  Level FlightAware
08:10AM 62.1610 17.5220 290° West 462 532 34,000  Level FlightAware
08:11AM 62.1900 17.3590 291° West 464 534 34,000  Level FlightAware
08:11AM 62.2100 17.2470 291° West 465 535 34,000  Level FlightAware
08:12AM 62.2420 17.0590 290° West 466 536 34,000  Level FlightAware
08:13AM 62.2670 16.9170 291° West 467 537 34,000  Level FlightAware
08:13AM 62.2930 16.7660 290° West 467 537 34,000  Level FlightAware
08:14AM 62.3170 16.6250 290° West 466 536 34,000  Level FlightAware
08:14AM 62.3430 16.4670 290° West 467 537 34,000  Level FlightAware
08:15AM 62.3700 16.3090 290° West 467 537 34,000  Level FlightAware
08:15AM 62.3950 16.1530 289° West 466 536 34,000  Level FlightAware
08:16AM 62.4180 16.0160 290° West 466 536 34,000  Level FlightAware
08:17AM 62.4460 15.8410 289° West 467 537 34,000  Level FlightAware
08:17AM 62.4690 15.6980 289° West 467 537 34,000  Level FlightAware
08:18AM 62.4950 15.5380 289° West 468 539 34,000  Level FlightAware
08:18AM 62.5200 15.3820 289° West 468 539 34,000  Level FlightAware
08:19AM 62.5450 15.2250 289° West 468 539 34,000  Level FlightAware
08:20AM 62.5670 15.0790 288° West 467 537 34,000  Level FlightAware
08:20AM 62.5910 14.9240 289° West 467 537 34,000  Level FlightAware
08:21AM 62.6150 14.7700 289° West 466 536 34,000  Level FlightAware
08:21AM 62.6390 14.6090 288° West 467 537 34,000  Level FlightAware
08:22AM 62.6650 14.4400 289° West 468 539 34,000  Level FlightAware
08:22AM 62.6850 14.3000 287° West 468 539 34,000  Level FlightAware
08:23AM 62.7090 14.1390 288° West 468 539 34,000  Level FlightAware
08:24AM 62.7330 13.9750 288° West 469 540 34,000  Level FlightAware
08:24AM 62.7540 13.8310 288° West 469 540 34,000  Level FlightAware
08:25AM 62.7780 13.6670 288° West 471 542 34,000  Level FlightAware
08:25AM 62.7980 13.5220 287° West 472 543 34,000  Level FlightAware
08:26AM 62.8230 13.3440 287° West 473 544 34,000  Level FlightAware
08:27AM 62.8440 13.1960 287° West 474 545 34,000  Level FlightAware
08:27AM 62.8660 13.0400 287° West 475 547 34,000  Level FlightAware
08:28AM 62.8890 12.8670 286° West 474 545 34,000  Level FlightAware
08:28AM 62.9110 12.7120 287° West 474 545 34,000  Level FlightAware
08:29AM 62.9340 12.5350 286° West 474 545 34,000  Level FlightAware
08:29AM 62.9540 12.3870 287° West 475 547 34,000  Level FlightAware
08:30AM 62.9740 12.2310 286° West 474 545 34,000  Level FlightAware
08:31AM 62.9970 12.0540 286° West 475 547 34,000  Level FlightAware
08:31AM 63.0180 11.8940 286° West 474 545 34,000  Level FlightAware
08:32AM 63.0370 11.7440 286° West 473 544 34,000  Level FlightAware
08:32AM 63.0590 11.5710 286° West 474 545 34,000  Level FlightAware
08:33AM 63.0770 11.4270 285° West 474 545 34,000  Level FlightAware
08:34AM 63.0980 11.2550 285° West 475 547 34,000  Level FlightAware
08:34AM 63.1190 11.0880 286° West 475 547 34,000  Level FlightAware
08:35AM 63.1390 10.9180 285° West 475 547 34,000  Level FlightAware
08:35AM 63.1570 10.7740 286° West 476 548 34,000  Level FlightAware
08:36AM 63.1780 10.5910 284° West 477 549 34,000  Level FlightAware
08:37AM 63.1980 10.4240 285° West 478 550 34,000  Level FlightAware
08:37AM 63.2170 10.2580 284° West 478 550 34,000  Level FlightAware
08:38AM 63.2360 10.0880 284° West 479 551 34,000  Level FlightAware
08:38AM 63.2530 9.9420 285° West 479 551 34,000  Level FlightAware
08:39AM 63.2760 9.7330 284° West 479 551 34,000  Level FlightAware
08:40AM 63.2960 9.5590 284° West 479 551 34,000  Level FlightAware
08:40AM 63.3190 9.3470 284° West 478 550 34,000  Level FlightAware
08:41AM 63.3350 9.1920 283° West 476 548 34,000  Level FlightAware
08:41AM 63.3550 9.0000 283° West 474 545 34,000  Level FlightAware
08:42AM 63.3670 8.8860 283° West 475 547 34,000  Level FlightAware
08:43AM 63.4010 8.5550 283° West 479 551 34,000  Level FlightAware
08:44AM 63.4170 8.4030 283° West 480 552 34,000  Level FlightAware
08:44AM 63.4350 8.2240 283° West 480 552 34,000  Level FlightAware
08:45AM 63.4510 8.0650 283° West 479 551 34,000  Level FlightAware
08:45AM 63.4670 7.8950 282° West 480 552 34,000  Level FlightAware
08:46AM 63.4840 7.7170 282° West 480 552 34,000  Level FlightAware
08:47AM 63.5000 7.5450 282° West 480 552 34,000  Level FlightAware
08:47AM 63.5150 7.3910 282° West 480 552 34,000  Level FlightAware
08:48AM 63.5310 7.2120 281° West 481 554 34,000  Level FlightAware
08:48AM 63.5470 7.0380 282° West 481 554 34,000  Level FlightAware
08:49AM 63.5630 6.8590 281° West 480 552 34,000  Level FlightAware
08:50AM 63.5800 6.6640 281° West 475 547 34,000  Level FlightAware
08:50AM 63.5970 6.4740 281° West 474 545 34,000  Level FlightAware
08:51AM 63.6120 6.2950 281° West 472 543 34,000  Level FlightAware
08:51AM 63.6250 6.1450 281° West 470 541 34,000  Level FlightAware
08:52AM 63.6420 5.9270 280° West 471 542 34,000  Level FlightAware
08:53AM 63.6550 5.7670 280° West 471 542 34,000  Level FlightAware
08:53AM 63.6700 5.5860 281° West 471 542 34,000  Level FlightAware
08:54AM 63.6850 5.3960 280° West 470 541 34,000  Level FlightAware
08:55AM 63.6990 5.2060 280° West 470 541 34,000  Level FlightAware
08:55AM 63.7130 5.0240 280° West 470 541 34,000  Level FlightAware
08:56AM 63.7260 4.8620 280° West 474 545 34,000  Level FlightAware
08:57AM 63.7390 4.6640 279° West 475 547 34,000  Level FlightAware
08:57AM 63.7540 4.4700 280° West 476 548 34,000  Level FlightAware
08:58AM 63.7660 4.3010 279° West 476 548 34,000  Level FlightAware
08:58AM 63.7760 4.1490 279° West 477 549 34,000  Level FlightAware
08:59AM 63.7890 3.9330 278° West 478 550 34,000  Level FlightAware
08:59AM 63.8000 3.7960 280° West 479 551 34,000  Level FlightAware
09:00AM 63.8150 3.5670 279° West 481 554 34,000  Level FlightAware
09:01AM 63.8240 3.4140 278° West 481 554 34,000  Level FlightAware
09:01AM 63.8340 3.2620 279° West 481 554 34,000  Level FlightAware
09:02AM 63.8430 3.1090 278° West 481 554 34,000  Level FlightAware
09:03AM 63.8520 2.9730 279° West 481 554 34,000  Level FlightAware
09:03AM 63.8610 2.8200 278° West 481 554 34,000  Level FlightAware
09:04AM 63.8710 2.6660 278° West 481 554 34,000  Level FlightAware
09:04AM 63.8800 2.5130 278° West 481 554 34,000  Level FlightAware
09:05AM 63.8890 2.3600 278° West 481 554 34,000  Level FlightAware
09:06AM 63.8990 2.2070 279° West 481 554 34,000  Level FlightAware
09:06AM 63.9080 2.0540 278° West 481 554 34,000  Level FlightAware
09:07AM 63.9180 1.9000 278° West 481 554 34,000  Level FlightAware
09:07AM 63.9270 1.7470 278° West 481 554 34,000  Level FlightAware
09:08AM 63.9370 1.5890 278° West 481 554 34,000  Level FlightAware
09:09AM 63.9470 1.4310 278° West 481 554 34,000  Level FlightAware
09:09AM 63.9560 1.2780 278° West 481 554 34,000  Level FlightAware
09:12AM 63.9793 0.6395 275° West  Level Estimated
09:13AM 63.9887 0.3553 274° West  Level Estimated
09:13AM 64.0070 -0.1980 274° West 473 544 34,000  Level FlightAware
09:13AM 64.0130 -0.3820 274° West 472 543 34,000  Level FlightAware
09:14AM 64.0190 -0.5630 274° West 472 543 34,000  Level FlightAware
09:15AM 64.0230 -0.7110 274° West 472 543 34,000  Level FlightAware
09:15AM 64.0290 -0.9000 274° West 469 540 34,000  Level FlightAware
09:16AM 64.0330 -1.0760 273° West 468 539 34,000  Level FlightAware
09:16AM 64.0380 -1.2490 274° West 467 537 34,000  Level FlightAware
09:17AM 64.0420 -1.4260 273° West 468 539 34,000  Level FlightAware
09:18AM 64.0460 -1.5860 273° West 468 539 34,000  Level FlightAware
09:18AM 64.0480 -1.6640 273° West 468 539 34,000  Level FlightAware
09:19AM 64.0530 -1.9090 273° West 467 537 34,000  Level FlightAware
09:19AM 64.0570 -2.0980 273° West 467 537 34,000  Level FlightAware
09:20AM 64.0600 -2.2580 273° West 466 536 34,000  Level FlightAware
09:20AM 64.0640 -2.4480 273° West 466 536 34,000  Level FlightAware
09:21AM 64.0670 -2.6240 272° West 465 535 34,000  Level FlightAware
09:22AM 64.0690 -2.7770 272° West 466 536 34,000  Level FlightAware
09:22AM 64.0710 -2.8640 273° West 466 536 34,000  Level FlightAware
09:23AM 64.0740 -3.1200 272° West 468 539 34,000  Level FlightAware
09:23AM 64.0760 -3.2750 272° West 469 540 34,000  Level FlightAware
09:24AM 64.0780 -3.4600 271° West 470 541 34,000  Level FlightAware
09:24AM 64.0800 -3.6420 272° West 472 543 34,000  Level FlightAware
09:25AM 64.0810 -3.8210 271° West 473 544 34,000  Level FlightAware
09:26AM 64.0830 -4.0030 272° West 475 547 34,000  Level FlightAware
09:26AM 64.0840 -4.1600 271° West 474 545 34,000  Level FlightAware
09:27AM 64.0850 -4.3410 271° West 473 544 34,000  Level FlightAware
09:27AM 64.0860 -4.5130 271° West 473 544 34,000  Level FlightAware
09:28AM 64.0860 -4.6740 270° West 473 544 34,000  Level FlightAware
09:29AM 64.0860 -4.8570 270° West 475 547 34,000  Level FlightAware
09:29AM 64.0860 -5.0380 270° West 472 543 34,000  Level FlightAware
09:30AM 64.0860 -5.2140 270° West 472 543 34,000  Level FlightAware
09:30AM 64.0860 -5.3730 270° West 472 543 34,000  Level FlightAware
09:31AM 64.0850 -5.5560 269° West 474 545 34,000  Level FlightAware
09:31AM 64.0850 -5.7270 270° West 475 547 34,000  Level FlightAware
09:32AM 64.0840 -5.8980 269° West 475 547 34,000  Level FlightAware
09:33AM 64.0820 -6.0720 269° West 475 547 34,000  Level FlightAware
09:34AM 64.0790 -6.3370 269° West 474 545 34,000  Level FlightAware
09:34AM 64.0780 -6.5440 269° West 472 543 34,000  Level FlightAware
09:35AM 64.0760 -6.7240 269° West 472 543 34,000  Level FlightAware
09:35AM 64.0740 -6.8830 268° West 471 542 34,000  Level FlightAware
09:36AM 64.0720 -7.0560 269° West 470 541 34,000  Level FlightAware
09:36AM 64.0690 -7.2360 268° West 471 542 34,000  Level FlightAware
09:37AM 64.0650 -7.4420 268° West 471 542 34,000  Level FlightAware
09:38AM 64.0620 -7.5940 267° West 471 542 34,000  Level FlightAware
09:38AM 64.0580 -7.7460 267° West 471 542 34,000  Level FlightAware
09:39AM 64.0550 -7.8990 268° West 471 542 34,000  Level FlightAware
09:39AM 64.0520 -8.0000 266° West 471 542 34,000  Level FlightAware
09:40AM 64.0490 -8.1560 268° West 471 542 34,000  Level FlightAware
09:41AM 64.0450 -8.3000 266° West 471 542 34,000  Level FlightAware
09:41AM 64.0420 -8.4520 267° West 471 542 34,000  Level FlightAware
09:42AM 64.0370 -8.6420 267° West 471 542 34,000  Level FlightAware
09:43AM 64.0340 -8.7940 267° West 471 542 34,000  Level FlightAware
09:43AM 64.0300 -8.9470 267° West 471 542 34,000  Level FlightAware
09:44AM 64.0270 -9.0990 267° West 471 542 34,000  Level FlightAware
09:44AM 64.0230 -9.2420 266° West 471 542 34,000  Level FlightAware
09:45AM 64.0200 -9.3940 267° West 471 542 34,000  Level FlightAware
09:46AM 64.0160 -9.5460 267° West 471 542 34,000 1,560 Level FlightAware
09:46AM 63.9910 -10.1410 265° West 474 545 36,000 1,620 Climbing FlightAware
09:47AM 63.9810 -10.3040 262° West 474 545 36,000  Level FlightAware
09:47AM 63.9690 -10.4870 262° West 475 547 36,000  Level FlightAware
09:48AM 63.9570 -10.6650 261° West 475 547 36,000  Level FlightAware
09:48AM 63.9470 -10.8160 261° West 475 547 36,000  Level FlightAware
09:49AM 63.9340 -10.9960 261° West 475 547 36,000  Level FlightAware
09:50AM 63.9220 -11.1720 261° West 478 550 36,000  Level FlightAware
09:50AM 63.9100 -11.3470 261° West 479 551 36,000  Level FlightAware
09:51AM 63.8980 -11.5060 260° West 480 552 36,000  Level FlightAware
09:51AM 63.8840 -11.6890 260° West 479 551 36,000  Level FlightAware
09:52AM 63.8720 -11.8480 260° West 481 554 36,000  Level FlightAware
09:53AM 63.8570 -12.0460 260° West 481 554 36,000  Level FlightAware
09:53AM 63.8450 -12.2070 260° West 480 552 36,000  Level FlightAware
09:54AM 63.8310 -12.3750 259° West 479 551 36,000  Level FlightAware
09:54AM 63.8170 -12.5590 260° West 477 549 36,000  Level FlightAware
09:55AM 63.8020 -12.7350 259° West 477 549 36,000  Level FlightAware
09:56AM 63.7890 -12.8900 259° West 476 548 36,000  Level FlightAware
09:56AM 63.7740 -13.0720 260° West 474 545 36,000  Level FlightAware
09:57AM 63.7600 -13.2330 259° West 474 545 36,000  Level FlightAware
09:57AM 63.7450 -13.4080 259° West 474 545 36,000  Level FlightAware
09:58AM 63.7300 -13.5810 259° West 475 547 36,000  Level FlightAware
09:58AM 63.7150 -13.7510 259° West 476 548 36,000  Level FlightAware
09:59AM 63.6990 -13.9250 258° West 477 549 36,000  Level FlightAware
09:59AM 63.6880 -14.0480 259° West 477 549 36,000  Level FlightAware
10:00AM 63.6630 -14.3150 258° West 479 551 36,000  Level FlightAware
10:01AM 63.6480 -14.4670 258° West 480 552 36,000  Level FlightAware
10:02AM 63.6310 -14.6460 258° West 480 552 36,000  Level FlightAware
10:02AM 63.6130 -14.8270 257° West 481 554 36,000  Level FlightAware
10:03AM 63.5950 -15.0100 258° West 480 552 36,000  Level FlightAware
10:03AM 63.5770 -15.1940 258° West 480 552 36,000  Level FlightAware
10:04AM 63.5610 -15.3480 257° West 480 552 36,000  Level FlightAware
10:05AM 63.5430 -15.5260 257° West 481 554 36,000  Level FlightAware
10:05AM 63.5240 -15.7070 257° West 481 554 36,000  Level FlightAware
10:06AM 63.5070 -15.8640 256° West 482 555 36,000  Level FlightAware
10:06AM 63.4890 -16.0360 257° West 483 556 36,000  Level FlightAware
10:07AM 63.4700 -16.2120 256° West 483 556 36,000  Level FlightAware
10:08AM 63.4510 -16.3830 256° West 484 557 36,000  Level FlightAware
10:08AM 63.4330 -16.5440 256° West 484 557 36,000  Level FlightAware
10:09AM 63.4140 -16.7150 256° West 483 556 36,000  Level FlightAware
10:09AM 63.3930 -16.8980 256° West 482 555 36,000  Level FlightAware
10:10AM 63.3760 -17.0460 256° West 482 555 36,000  Level FlightAware
10:10AM 63.3560 -17.2180 256° West 483 556 36,000  Level FlightAware
10:11AM 63.3350 -17.4010 256° West 483 556 36,000  Level FlightAware
10:12AM 63.3230 -17.5040 255° West 484 557 36,000  Level FlightAware
10:12AM 63.2960 -17.7300 255° West 484 557 36,000  Level FlightAware
10:13AM 63.2780 -17.8780 255° West 483 556 36,000  Level FlightAware
10:13AM 63.2550 -18.0660 255° West 480 552 36,000  Level FlightAware
10:14AM 63.2350 -18.2210 254° West 478 550 36,000  Level FlightAware
10:14AM 63.2140 -18.3930 255° West 477 549 36,000  Level FlightAware
10:15AM 63.1920 -18.5610 254° West 477 549 36,000  Level FlightAware
10:16AM 63.1730 -18.7100 254° West 476 548 36,000  Level FlightAware
10:16AM 63.1540 -18.8600 254° West 476 548 36,000  Level FlightAware
10:17AM 63.1310 -19.0370 254° West 477 549 36,000  Level FlightAware
10:17AM 63.1080 -19.2080 254° West 478 550 36,000  Level FlightAware
10:18AM 63.0870 -19.3650 254° West 478 550 36,000  Level FlightAware
10:19AM 63.0640 -19.5380 254° West 479 551 36,000  Level FlightAware
10:19AM 63.0430 -19.6920 253° West 477 549 36,000  Level FlightAware
10:20AM 63.0220 -19.8400 253° West 476 548 36,000  Level FlightAware
10:20AM 63.0000 -20.0220 255° West 473 544 36,000  Level FlightAware
10:21AM 62.9880 -20.1950 261° West 472 543 36,000  Level FlightAware
10:21AM 62.9780 -20.3530 262° West 470 541 36,000  Level FlightAware
10:22AM 62.9680 -20.5080 262° West 468 539 36,000  Level FlightAware
10:23AM 62.9560 -20.6850 262° West 467 537 36,000  Level FlightAware
10:23AM 62.9460 -20.8380 262° West 468 539 36,000  Level FlightAware
10:24AM 62.9360 -20.9830 261° West 468 539 36,000  Level FlightAware
10:24AM 62.9230 -21.1710 261° West 467 537 36,000  Level FlightAware
10:25AM 62.9110 -21.3380 261° West 466 536 36,000  Level FlightAware
10:26AM 62.9000 -21.4880 261° West 465 535 36,000  Level FlightAware
10:26AM 62.8880 -21.6520 261° West 466 536 36,000  Level FlightAware
10:27AM 62.8750 -21.8210 260° West 467 537 36,000  Level FlightAware
10:27AM 62.8630 -21.9790 261° West 468 539 36,000  Level FlightAware
10:28AM 62.8510 -22.1390 261° West 469 540 36,000  Level FlightAware
10:29AM 62.8370 -22.3180 260° West 469 540 36,000  Level FlightAware
10:29AM 62.8250 -22.4760 261° West 468 539 36,000  Level FlightAware
10:30AM 62.8110 -22.6380 259° West 468 539 36,000  Level FlightAware
10:30AM 62.7960 -22.8220 260° West 469 540 36,000  Level FlightAware
10:31AM 62.7820 -22.9960 260° West 469 540 36,000  Level FlightAware
10:31AM 62.7690 -23.1500 260° West 469 540 36,000  Level FlightAware
10:32AM 62.7550 -23.3110 259° West 469 540 36,000  Level FlightAware
10:33AM 62.7400 -23.4890 260° West 469 540 36,000  Level FlightAware
10:33AM 62.7270 -23.6340 259° West 468 539 36,000  Level FlightAware
10:34AM 62.7110 -23.8110 259° West 467 537 36,000  Level FlightAware
10:34AM 62.6980 -23.9550 259° West 466 536 36,000  Level FlightAware
10:35AM 62.6820 -24.1230 258° West 466 536 36,000  Level FlightAware
10:35AM 62.6710 -24.2500 259° West 466 536 36,000  Level FlightAware
10:36AM 62.6510 -24.4550 258° West 466 536 36,000  Level FlightAware
10:37AM 62.6360 -24.6100 258° West 465 535 36,000  Level FlightAware
10:37AM 62.6210 -24.7690 258° West 464 534 36,000  Level FlightAware
10:38AM 62.6060 -24.9190 258° West 463 533 36,000  Level FlightAware
10:38AM 62.5930 -25.0480 258° West 462 532 36,000  Level FlightAware
10:39AM 62.5730 -25.2490 258° West 462 532 36,000  Level FlightAware
10:40AM 62.5620 -25.3580 258° West 463 533 36,000 -240 Level FlightAware
10:41AM 62.5200 -25.7650 258° West 460 529 35,600 -420 Descending FlightAware
10:42AM 62.5030 -25.9200 257° West 459 528 35,200 -720 Descending FlightAware
10:42AM 62.4870 -26.0690 257° West 460 529 34,800 -780 Descending FlightAware
10:43AM 62.4630 -26.2920 257° West 460 529 34,200 -780 Descending FlightAware
10:44AM 62.4470 -26.4340 256° West 455 524 33,800 -900 Descending FlightAware
10:44AM 62.4300 -26.5900 257° West 457 526 33,200 -1,080 Descending FlightAware
10:45AM 62.4130 -26.7360 256° West 460 529 32,600 -960 Descending FlightAware
10:45AM 62.3950 -26.8960 256° West 459 528 32,100 -540 Descending FlightAware
10:46AM 62.3790 -27.0370 256° West 453 521 32,000 -120 Descending FlightAware
10:46AM 62.3590 -27.2100 256° West 453 521 32,000  Level FlightAware
10:47AM 62.3410 -27.3570 255° West 451 519 32,000  Level FlightAware
10:48AM 62.3230 -27.5140 256° West 452 520 32,000  Level FlightAware
10:48AM 62.3040 -27.6690 255° West 453 521 32,000  Level FlightAware
10:49AM 62.2870 -27.8090 255° West 455 524 32,000  Level FlightAware
10:49AM 62.2690 -27.9610 256° West 458 527 32,000  Level FlightAware
10:50AM 62.2490 -28.1210 255° West 459 528 32,000  Level FlightAware
10:51AM 62.2300 -28.2730 255° West 459 528 32,000  Level FlightAware
10:51AM 62.2110 -28.4210 255° West 462 532 32,000  Level FlightAware
10:52AM 62.1900 -28.5840 255° West 463 533 32,000  Level FlightAware
10:52AM 62.1700 -28.7440 255° West 462 532 32,000  Level FlightAware
10:53AM 62.1500 -28.8980 255° West 460 529 32,000  Level FlightAware
10:53AM 62.1310 -29.0370 254° West 462 532 32,000  Level FlightAware
10:54AM 62.1100 -29.1960 254° West 463 533 32,000  Level FlightAware
10:55AM 62.0890 -29.3580 255° West 463 533 32,000  Level FlightAware
10:55AM 62.0670 -29.5170 254° West 462 532 32,000  Level FlightAware
10:56AM 62.0390 -29.7220 254° West 461 531 32,000  Level FlightAware
10:57AM 62.0200 -29.8580 253° West 460 529 32,000  Level FlightAware
10:57AM 61.9990 -30.0020 253° West 460 529 32,000  Level FlightAware
10:58AM 61.9640 -30.1460 243° Southwest 469 540 32,000  Level FlightAware
10:58AM 61.9230 -30.3090 242° Southwest 469 540 32,000  Level FlightAware
10:59AM 61.8920 -30.4330 242° Southwest 469 540 32,000  Level FlightAware
11:00AM 61.8610 -30.5580 242° Southwest 469 540 32,000  Level FlightAware
11:00AM 61.8290 -30.6820 241° Southwest 469 540 32,000  Level FlightAware
11:01AM 61.7980 -30.8060 242° Southwest 469 540 32,000  Level FlightAware
11:01AM 61.7670 -30.9300 242° Southwest 469 540 32,000  Level FlightAware
11:02AM 61.7380 -31.0470 242° Southwest 469 540 32,000  Level FlightAware
11:03AM 61.7060 -31.1710 241° Southwest 469 540 32,000  Level FlightAware
11:03AM 61.6750 -31.2940 242° Southwest 469 540 32,000  Level FlightAware
11:04AM 61.6440 -31.4180 242° Southwest 469 540 32,000  Level FlightAware
11:04AM 61.6120 -31.5450 242° Southwest 469 540 32,000  Level FlightAware
11:05AM 61.5830 -31.6610 242° Southwest 469 540 32,000  Level FlightAware
11:06AM 61.5510 -31.7840 241° Southwest 469 540 32,000  Level FlightAware
11:06AM 61.5200 -31.9070 242° Southwest 469 540 32,000  Level FlightAware
11:07AM 61.4860 -32.0400 242° Southwest 469 540 32,000  Level FlightAware
11:07AM 61.4550 -32.1630 242° Southwest 469 540 32,000  Level FlightAware
11:10AM 61.3335 -32.6206 241° Southwest  Level FlightAware Approximate
11:11AM 61.2733 -32.8443 241° Southwest  Level FlightAware Approximate
11:12AM 61.2126 -33.0672 241° Southwest  Level FlightAware Approximate
11:13AM 61.1516 -33.2892 240° Southwest  Level FlightAware Approximate
11:14AM 61.0902 -33.5104 240° Southwest  Level FlightAware Approximate
11:15AM 61.0285 -33.7307 240° Southwest  Level FlightAware Approximate
11:16AM 60.9664 -33.9502 240° Southwest  Level FlightAware Approximate
11:17AM 60.9039 -34.1688 240° Southwest  Level FlightAware Approximate
11:18AM 60.8411 -34.3865 239° Southwest  Level FlightAware Approximate
11:19AM 60.7779 -34.6034 239° Southwest  Level FlightAware Approximate
11:20AM 60.7144 -34.8194 239° Southwest  Level FlightAware Approximate
11:21AM 60.6506 -35.0345 239° Southwest  Level FlightAware Approximate
11:22AM 60.5864 -35.2489 239° Southwest  Level FlightAware Approximate
11:23AM 60.5218 -35.4623 238° Southwest  Level FlightAware Approximate
11:24AM 60.4569 -35.6749 238° Southwest  Level FlightAware Approximate
11:25AM 60.3917 -35.8867 238° Southwest  Level FlightAware Approximate
11:26AM 60.3262 -36.0976 238° Southwest  Level FlightAware Approximate
11:27AM 60.2603 -36.3077 238° Southwest  Level FlightAware Approximate
11:28AM 60.1941 -36.5169 238° Southwest  Level FlightAware Approximate
11:29AM 60.1275 -36.7253 237° Southwest  Level FlightAware Approximate
11:30AM 60.0607 -36.9328 237° Southwest  Level FlightAware Approximate
11:31AM 59.9935 -37.1395 237° Southwest  Level FlightAware Approximate
11:32AM 59.9260 -37.3453 237° Southwest  Level FlightAware Approximate
11:33AM 59.8581 -37.5503 237° Southwest  Level FlightAware Approximate
11:34AM 59.7900 -37.7545 237° Southwest  Level FlightAware Approximate
11:35AM 59.7215 -37.9578 236° Southwest  Level FlightAware Approximate
11:36AM 59.6527 -38.1604 236° Southwest  Level FlightAware Approximate
11:37AM 59.5836 -38.3620 236° Southwest  Level FlightAware Approximate
11:38AM 59.5142 -38.5629 236° Southwest  Level FlightAware Approximate
11:39AM 59.4445 -38.7629 236° Southwest  Level FlightAware Approximate
11:40AM 59.3745 -38.9621 235° Southwest  Level FlightAware Approximate
11:41AM 59.3042 -39.1605 235° Southwest  Level FlightAware Approximate
11:42AM 59.2336 -39.3580 235° Southwest  Level FlightAware Approximate
11:43AM 59.1627 -39.5547 235° Southwest  Level FlightAware Approximate
11:44AM 59.0915 -39.7507 235° Southwest  Level FlightAware Approximate
11:45AM 59.0200 -39.9458 235° Southwest  Level FlightAware Approximate
11:46AM 58.9624 -40.1566 245° Southwest  Level FlightAware Approximate
11:47AM 58.9101 -40.3728 245° Southwest  Level FlightAware Approximate
11:48AM 58.8575 -40.5883 245° Southwest  Level FlightAware Approximate
11:49AM 58.8045 -40.8032 245° Southwest  Level FlightAware Approximate
11:50AM 58.7511 -41.0174 244° Southwest  Level FlightAware Approximate
11:51AM 58.6974 -41.2309 244° Southwest  Level FlightAware Approximate
11:52AM 58.6433 -41.4438 244° Southwest  Level FlightAware Approximate
11:53AM 58.5889 -41.6561 244° Southwest  Level FlightAware Approximate
11:54AM 58.5341 -41.8676 244° Southwest  Level FlightAware Approximate
11:55AM 58.4790 -42.0785 244° Southwest  Level FlightAware Approximate
11:56AM 58.4236 -42.2888 243° Southwest  Level FlightAware Approximate
11:57AM 58.3677 -42.4984 243° Southwest  Level FlightAware Approximate
11:58AM 58.3116 -42.7073 243° Southwest  Level FlightAware Approximate
11:59AM 58.2551 -42.9155 243° Southwest  Level FlightAware Approximate
12:00PM 58.1983 -43.1231 243° Southwest  Level FlightAware Approximate
12:01PM 58.1411 -43.3301 242° Southwest  Level FlightAware Approximate
12:02PM 58.0836 -43.5363 242° Southwest  Level FlightAware Approximate
12:03PM 58.0258 -43.7419 242° Southwest  Level FlightAware Approximate
12:04PM 57.9676 -43.9468 242° Southwest  Level FlightAware Approximate
12:05PM 57.9091 -44.1511 242° Southwest  Level FlightAware Approximate
12:06PM 57.8503 -44.3547 242° Southwest  Level FlightAware Approximate
12:07PM 57.7912 -44.5576 241° Southwest  Level FlightAware Approximate
12:08PM 57.7317 -44.7599 241° Southwest  Level FlightAware Approximate
12:09PM 57.6720 -44.9615 241° Southwest  Level FlightAware Approximate
12:10PM 57.6119 -45.1624 241° Southwest  Level FlightAware Approximate
12:11PM 57.5514 -45.3627 241° Southwest  Level FlightAware Approximate
12:12PM 57.4907 -45.5623 241° Southwest  Level FlightAware Approximate
12:13PM 57.4297 -45.7612 240° Southwest  Level FlightAware Approximate
12:14PM 57.3683 -45.9595 240° Southwest  Level FlightAware Approximate
12:15PM 57.3066 -46.1571 240° Southwest  Level FlightAware Approximate
12:16PM 57.2447 -46.3540 240° Southwest  Level FlightAware Approximate
12:17PM 57.1824 -46.5503 240° Southwest  Level FlightAware Approximate
12:18PM 57.1198 -46.7459 240° Southwest  Level FlightAware Approximate
12:19PM 57.0569 -46.9409 239° Southwest  Level FlightAware Approximate
12:20PM 56.9937 -47.1352 239° Southwest  Level FlightAware Approximate
12:21PM 56.9302 -47.3288 239° Southwest  Level FlightAware Approximate
12:22PM 56.8664 -47.5218 239° Southwest  Level FlightAware Approximate
12:23PM 56.8023 -47.7141 239° Southwest  Level FlightAware Approximate
12:24PM 56.7379 -47.9058 239° Southwest  Level FlightAware Approximate
12:25PM 56.6732 -48.0968 238° Southwest  Level FlightAware Approximate
12:26PM 56.6082 -48.2872 238° Southwest  Level FlightAware Approximate
12:27PM 56.5430 -48.4769 238° Southwest  Level FlightAware Approximate
12:28PM 56.4774 -48.6659 238° Southwest  Level FlightAware Approximate
12:29PM 56.4116 -48.8543 238° Southwest  Level FlightAware Approximate
12:30PM 56.3455 -49.0420 238° Southwest  Level FlightAware Approximate
12:31PM 56.2791 -49.2291 237° Southwest  Level FlightAware Approximate
12:32PM 56.2124 -49.4155 237° Southwest  Level FlightAware Approximate
12:33PM 56.1454 -49.6013 237° Southwest  Level FlightAware Approximate
12:34PM 56.0782 -49.7865 237° Southwest  Level FlightAware Approximate
12:35PM 56.0107 -49.9710 237° Southwest  Level FlightAware Approximate
12:36PM 55.9330 -50.1417 230° Southwest  Level FlightAware Approximate
12:37PM 55.8534 -50.3093 230° Southwest  Level FlightAware Approximate
12:38PM 55.7735 -50.4761 230° Southwest  Level FlightAware Approximate
12:39PM 55.6933 -50.6423 229° Southwest  Level FlightAware Approximate
12:40PM 55.6130 -50.8078 229° Southwest  Level FlightAware Approximate
12:41PM 55.5324 -50.9727 229° Southwest  Level FlightAware Approximate
12:42PM 55.4516 -51.1368 229° Southwest  Level FlightAware Approximate
12:43PM 55.3706 -51.3003 229° Southwest  Level FlightAware Approximate
12:44PM 55.2893 -51.4631 229° Southwest  Level FlightAware Approximate
12:45PM 55.2079 -51.6253 229° Southwest  Level FlightAware Approximate
12:46PM 55.1262 -51.7868 229° Southwest  Level FlightAware Approximate
12:47PM 55.0443 -51.9476 228° Southwest  Level FlightAware Approximate
12:48PM 54.9622 -52.1077 228° Southwest  Level FlightAware Approximate
12:49PM 54.8799 -52.2673 228° Southwest  Level FlightAware Approximate
12:50PM 54.7974 -52.4261 228° Southwest  Level FlightAware Approximate
12:51PM 54.7147 -52.5843 228° Southwest  Level FlightAware Approximate
12:52PM 54.6318 -52.7419 228° Southwest  Level FlightAware Approximate
12:53PM 54.5487 -52.8988 228° Southwest  Level FlightAware Approximate
12:54PM 54.4653 -53.0551 228° Southwest  Level FlightAware Approximate
12:55PM 54.3818 -53.2108 227° Southwest  Level FlightAware Approximate
12:55PM 54.0667 -54.5000 226° Southwest 430 495 33,000  Level Gander Center
12:56PM 54.2981 -53.3658 227° Southwest  Level FlightAware Approximate
12:56PM 53.9833 -54.6500 227° Southwest 430 495 33,000  Level Gander Center
12:57PM 54.2142 -53.5202 227° Southwest  Level FlightAware Approximate
12:57PM 53.9167 -54.8000 233° Southwest 430 495 33,000  Level Gander Center
12:58PM 54.1300 -53.6740 227° Southwest  Level FlightAware Approximate
12:58PM 53.8167 -54.9667 225° Southwest 430 495 33,600  Level Gander Center
12:59PM 54.0457 -53.8271 227° Southwest  Level FlightAware Approximate
12:59PM 53.7333 -55.0833 220° Southwest 430 495 34,200  Level Gander Center
01:00PM 53.9609 -53.9762 226° Southwest  Level Estimated
01:00PM 53.6667 -55.2167 230° Southwest 430 495 34,900  Level Gander Center
01:01PM 53.5667 -55.3667 222° Southwest 420 483 35,600 540 Climbing Gander Center
01:02PM 53.5000 -55.4833 226° Southwest 420 483 36,000 180 Climbing Gander Center
01:03PM 53.4000 -55.6500 225° Southwest 420 483 36,000  Level Gander Center
01:03PM 53.3500 -55.7333 225° Southwest 420 483 36,000  Level Gander Center
01:04PM 53.2667 -55.8500 220° Southwest 410 472 36,000  Level Gander Center
01:05PM 53.2333 -55.9167 230° Southwest 410 472 36,000  Level Moncton Center
01:06PM 53.1500 -56.0500 224° Southwest 410 472 36,000  Level Moncton Center
01:07PM 53.0667 -56.1833 224° Southwest 410 472 36,000  Level Gander Center
01:08PM 53.0000 -56.3000 227° Southwest 400 460 36,000  Level Gander Center
01:09PM 52.9167 -56.4333 224° Southwest 410 472 36,000  Level Gander Center
01:10PM 52.8333 -56.5500 220° Southwest 400 460 36,000  Level Gander Center
01:10PM 52.7833 -56.6333 225° Southwest 410 472 36,000  Level Gander Center
01:11PM 52.7167 -56.7500 227° Southwest 400 460 36,000  Level Gander Center
01:12PM 52.6167 -56.8667 215° Southwest 400 460 36,000  Level Gander Center
01:13PM 52.5833 -56.9500 237° Southwest 410 472 36,000  Level Moncton Center
01:14PM 52.5000 -57.0833 224° Southwest 400 460 36,000  Level Moncton Center
01:15PM 52.4000 -57.2000 215° Southwest 410 472 36,000  Level Moncton Center
01:16PM 52.3333 -57.3167 227° Southwest 410 472 36,000  Level Gander Center
01:17PM 52.2500 -57.4333 221° Southwest 410 472 36,000  Level Gander Center
01:18PM 52.1667 -57.5667 224° Southwest 410 472 36,000  Level Gander Center
01:19PM 52.0833 -57.6833 221° Southwest 410 472 36,000  Level Gander Center
01:20PM 52.0000 -57.8000 221° Southwest 410 472 36,000  Level Gander Center
01:21PM 51.9167 -57.9500 228° Southwest 410 472 36,000  Level Gander Center
01:22PM 51.8333 -58.0667 221° Southwest 410 472 36,000  Level Gander Center
01:23PM 51.7500 -58.2000 225° Southwest 410 472 36,000  Level Gander Center
01:24PM 51.6667 -58.3167 221° Southwest 410 472 36,000  Level Gander Center
01:25PM 51.5667 -58.4333 216° Southwest 410 472 36,000  Level Gander Center
01:26PM 51.5000 -58.5667 231° Southwest 410 472 36,000  Level Gander Center
01:27PM 51.4167 -58.6833 221° Southwest 410 472 36,000  Level Gander Center
01:28PM 51.3333 -58.8000 221° Southwest 400 460 36,000  Level Gander Center
01:29PM 51.2500 -58.9000 217° Southwest 410 472 36,000  Level Gander Center
01:30PM 51.1500 -59.0500 223° Southwest 410 472 36,000  Level Gander Center
01:31PM 51.0667 -59.1500 217° Southwest 400 460 36,000  Level Gander Center
01:32PM 50.9833 -59.2667 221° Southwest 400 460 36,000  Level Gander Center
01:33PM 50.9000 -59.4000 225° Southwest 400 460 36,000  Level Gander Center
01:34PM 50.8167 -59.5167 222° Southwest 400 460 36,000  Level Gander Center
01:35PM 50.7500 -59.6167 224° Southwest 390 449 36,000  Level Gander Center
01:36PM 50.6667 -59.7333 222° Southwest 390 449 36,000  Level Gander Center
01:37PM 50.5833 -59.8333 217° Southwest 390 449 36,000  Level Gander Center
01:38PM 50.5000 -59.9667 226° Southwest 390 449 36,000  Level Gander Center
01:39PM 50.4000 -60.0833 217° Southwest 390 449 36,000  Level Gander Center
01:40PM 50.3167 -60.1667 213° Southwest 390 449 36,000  Level Moncton Center
01:41PM 50.2333 -60.2833 222° Southwest 390 449 36,000  Level Gander Center
01:42PM 50.1500 -60.4000 222° Southwest 390 449 36,000  Level Gander Center
01:43PM 50.0667 -60.5333 226° Southwest 390 449 36,000  Level Gander Center
01:44PM 50.0000 -60.6000 213° Southwest 380 437 36,000  Level Gander Center
01:45PM 49.9167 -60.7167 222° Southwest 390 449 36,000  Level Gander Center
01:46PM 49.8167 -60.8333 217° Southwest 390 449 36,000  Level Moncton Center
01:47PM 49.7500 -60.9500 229° Southwest 390 449 36,000  Level Gander Center
01:48PM 49.6667 -61.0500 218° Southwest 390 449 36,000  Level Gander Center
01:49PM 49.5833 -61.1500 218° Southwest 390 449 36,000  Level Gander Center
01:50PM 49.5000 -61.2500 218° Southwest 390 449 36,000  Level Gander Center
01:51PM 49.4167 -61.3667 222° Southwest 390 449 36,000  Level Gander Center
01:52PM 49.3333 -61.4667 218° Southwest 390 449 36,000  Level Gander Center
01:53PM 49.2500 -61.5667 218° Southwest 390 449 36,000  Level Gander Center
01:54PM 49.1667 -61.6833 222° Southwest 380 437 36,000  Level Gander Center
01:55PM 49.0833 -61.8000 223° Southwest 380 437 36,000  Level Gander Center
01:56PM 49.0000 -61.8667 208° Southwest 380 437 36,000  Level Gander Center
01:57PM 48.9167 -62.0000 226° Southwest 380 437 36,000  Level Gander Center
01:58PM 48.8500 -62.1000 225° Southwest 380 437 36,000  Level Gander Center
01:59PM 48.7667 -62.2000 218° Southwest 370 426 36,000  Level Gander Center
02:00PM 48.6833 -62.3000 218° Southwest 380 437 36,000  Level Gander Center
02:01PM 48.6000 -62.4000 218° Southwest 370 426 36,000  Level Gander Center
02:02PM 48.5167 -62.5000 218° Southwest 360 414 36,000  Level Gander Center
02:03PM 48.4333 -62.5667 208° Southwest 370 426 36,000  Level Gander Center
02:04PM 48.3500 -62.6667 219° Southwest 370 426 36,000  Level Gander Center
02:05PM 48.2667 -62.7667 219° Southwest 360 414 36,000  Level Gander Center
02:06PM 48.2000 -62.8667 225° Southwest 370 426 36,000  Level Gander Center
02:07PM 48.1167 -62.9667 219° Southwest 370 426 36,000  Level Gander Center
02:08PM 48.0333 -63.0667 219° Southwest 360 414 36,000  Level Moncton Center
02:09PM 47.9500 -63.1500 214° Southwest 370 426 36,000  Level Gander Center
02:10PM 47.8833 -63.2500 225° Southwest 360 414 36,000  Level Gander Center
02:11PM 47.8000 -63.3500 219° Southwest 360 414 36,000  Level Gander Center
02:12PM 47.7167 -63.4500 219° Southwest 360 414 36,000  Level Gander Center
02:13PM 47.6333 -63.5333 214° Southwest 360 414 36,000  Level Gander Center
02:14PM 47.5500 -63.6167 214° Southwest 360 414 36,000  Level Gander Center
02:15PM 47.4833 -63.7000 220° Southwest 370 426 36,000  Level Gander Center
02:16PM 47.4000 -63.8000 219° Southwest 370 426 36,000  Level Gander Center
02:17PM 47.3167 -63.9000 219° Southwest 360 414 36,000  Level Moncton Center
02:18PM 47.2333 -64.0000 219° Southwest 360 414 36,000  Level Moncton Center
02:19PM 47.1500 -64.0833 214° Southwest 360 414 36,000  Level Moncton Center
02:20PM 47.0667 -64.1833 219° Southwest 360 414 36,000  Level Moncton Center
02:21PM 47.0000 -64.2500 214° Southwest 360 414 36,000  Level Moncton Center
02:22PM 46.9167 -64.3500 219° Southwest 360 414 36,000  Level Moncton Center
02:23PM 46.8333 -64.4500 219° Southwest 360 414 36,000  Level Moncton Center
02:24PM 46.7500 -64.5167 209° Southwest 360 414 36,000  Level Moncton Center
02:25PM 46.6833 -64.6167 226° Southwest 360 414 36,000  Level Moncton Center
02:26PM 46.6000 -64.6833 209° Southwest 360 414 36,000  Level Moncton Center
02:27PM 46.5167 -64.7833 220° Southwest 360 414 36,000  Level Moncton Center
02:32PM 46.0820 -65.2810 220° Southwest 367 422 36,000  Level FlightAware
02:33PM 46.0360 -65.3280 215° Southwest 367 422 36,000  Level FlightAware
02:33PM 45.9850 -65.3830 217° Southwest 367 422 36,000  Level FlightAware
02:34PM 45.9420 -65.4290 217° Southwest 365 420 36,000  Level FlightAware
02:34PM 45.8880 -65.4870 217° Southwest 364 419 36,000  Level FlightAware
02:35PM 45.8450 -65.5330 217° Southwest 362 417 36,000  Level FlightAware
02:36PM 45.7950 -65.5850 216° Southwest 361 415 36,000  Level FlightAware
02:36PM 45.7490 -65.6340 217° Southwest 359 413 36,000  Level FlightAware
02:37PM 45.7000 -65.6860 217° Southwest 359 413 36,000  Level FlightAware
02:37PM 45.6540 -65.7340 216° Southwest 359 413 36,000  Level FlightAware
02:38PM 45.6100 -65.7810 217° Southwest 360 414 36,000  Level FlightAware
02:39PM 45.5620 -65.8310 216° Southwest 359 413 36,000  Level FlightAware
02:39PM 45.5170 -65.8780 216° Southwest 362 417 36,000  Level FlightAware
02:40PM 45.4590 -65.9390 216° Southwest 365 420 36,000  Level FlightAware
02:40PM 45.4090 -65.9900 216° Southwest 367 422 36,000  Level FlightAware
02:41PM 45.3590 -66.0420 216° Southwest 369 425 36,000  Level FlightAware
02:42PM 45.3180 -66.0850 216° Southwest 370 426 36,000  Level FlightAware
02:42PM 45.2670 -66.1380 216° Southwest 372 428 36,000  Level FlightAware
02:43PM 45.2150 -66.1910 216° Southwest 373 429 36,000  Level FlightAware
02:43PM 45.1690 -66.2380 216° Southwest 373 429 36,000  Level FlightAware
02:44PM 45.1210 -66.2880 216° Southwest 375 432 36,000  Level FlightAware
02:44PM 45.0720 -66.3380 216° Southwest 375 432 36,000  Level FlightAware
02:45PM 45.0190 -66.3930 216° Southwest 375 432 36,000  Level FlightAware
02:46PM 44.9760 -66.4360 215° Southwest 376 433 36,000  Level FlightAware
02:46PM 44.9220 -66.4910 216° Southwest 377 434 36,000  Level FlightAware
02:47PM 44.8770 -66.5370 216° Southwest 379 436 36,000  Level FlightAware
02:47PM 44.8250 -66.5900 216° Southwest 382 440 36,000  Level FlightAware
02:48PM 44.7620 -66.6540 216° Southwest 385 443 36,000  Level FlightAware
02:49PM 44.7080 -66.7080 215° Southwest 386 444 36,000  Level FlightAware
02:49PM 44.6580 -66.7580 215° Southwest 386 444 36,000  Level FlightAware
02:50PM 44.6180 -66.7990 216° Southwest 386 444 36,000  Level FlightAware
02:50PM 44.5620 -66.8540 215° Southwest 388 447 36,000  Level FlightAware
02:51PM 44.5090 -66.9080 216° Southwest 390 449 36,000  Level FlightAware
02:52PM 44.4550 -66.9620 216° Southwest 394 453 36,000  Level FlightAware
02:52PM 44.4080 -67.0110 217° Southwest 397 457 36,000  Level FlightAware
02:53PM 44.3610 -67.0760 225° Southwest 401 461 36,000  Level FlightAware
02:53PM 44.3150 -67.1390 224° Southwest 402 463 36,000  Level FlightAware
02:54PM 44.2730 -67.1980 225° Southwest 402 463 36,000  Level FlightAware
02:54PM 44.2350 -67.2500 224° Southwest 402 463 36,000  Level FlightAware
02:55PM 44.1830 -67.3200 224° Southwest 401 461 36,000  Level FlightAware
02:56PM 44.1380 -67.3810 224° Southwest 401 461 36,000  Level FlightAware
02:56PM 44.0950 -67.4400 225° Southwest 399 459 36,000  Level FlightAware
02:57PM 44.0420 -67.5130 225° Southwest 392 451 36,000  Level FlightAware
02:57PM 43.9950 -67.5760 224° Southwest 391 450 36,000  Level FlightAware
02:58PM 43.9480 -67.6390 224° Southwest 399 459 36,000  Level FlightAware
02:59PM 43.8960 -67.7100 225° Southwest 404 465 36,000  Level FlightAware
02:59PM 43.8480 -67.7740 224° Southwest 408 470 36,000  Level FlightAware
03:00PM 43.7940 -67.8460 224° Southwest 408 470 36,000  Level FlightAware
03:00PM 43.7460 -67.9100 224° Southwest 409 471 36,000  Level FlightAware
03:01PM 43.6990 -67.9730 224° Southwest 405 466 36,000  Level FlightAware
03:02PM 43.6510 -68.0370 224° Southwest 406 467 36,000  Level FlightAware
03:02PM 43.6040 -68.1000 224° Southwest 406 467 36,000  Level FlightAware
03:03PM 43.5550 -68.1640 223° Southwest 408 470 36,000  Level FlightAware
03:03PM 43.5220 -68.2080 224° Southwest 409 471 36,000  Level FlightAware
03:04PM 43.4770 -68.2680 224° Southwest 409 471 36,000  Level FlightAware
03:05PM 43.4210 -68.3420 224° Southwest 409 471 36,000  Level FlightAware
03:05PM 43.3790 -68.3970 224° Southwest 409 471 36,000  Level FlightAware
03:06PM 43.3380 -68.4530 225° Southwest 409 471 36,000  Level FlightAware
03:07PM 43.1960 -68.6350 223° Southwest 420 483 36,000  Level FlightAware
03:08PM 43.1530 -68.6900 223° Southwest 420 483 36,000  Level FlightAware
03:08PM 43.1070 -68.7510 224° Southwest 421 484 36,000  Level FlightAware
03:09PM 43.0580 -68.8140 223° Southwest 420 483 36,000  Level FlightAware
03:09PM 43.0080 -68.8780 223° Southwest 420 483 36,000  Level FlightAware
03:10PM 42.9440 -68.9600 223° Southwest 423 487 36,000  Level FlightAware
03:11PM 42.8960 -69.0230 224° Southwest 423 487 36,000  Level FlightAware
03:11PM 42.8280 -69.1100 223° Southwest 425 489 36,000  Level FlightAware
03:12PM 42.7790 -69.1710 222° Southwest 420 483 36,000  Level FlightAware
03:13PM 42.7330 -69.2300 223° Southwest 420 483 36,000  Level FlightAware
03:13PM 42.6560 -69.3280 223° Southwest 422 486 36,000  Level FlightAware
03:14PM 42.5970 -69.4030 223° Southwest 424 488 36,000  Level FlightAware
03:15PM 42.5410 -69.4740 223° Southwest 425 489 36,000  Level FlightAware
03:15PM 42.4800 -69.5500 223° Southwest 423 487 36,000  Level FlightAware
03:16PM 42.4410 -69.5990 223° Southwest 422 486 36,000  Level FlightAware
03:17PM 42.3790 -69.6770 223° Southwest 420 483 36,000  Level FlightAware
03:17PM 42.3190 -69.7530 223° Southwest 420 483 36,000  Level FlightAware
03:18PM 42.2720 -69.8110 222° Southwest 421 484 36,000  Level FlightAware
03:18PM 42.2160 -69.8800 222° Southwest 422 486 36,000  Level FlightAware
03:19PM 42.1560 -69.9550 223° Southwest 423 487 36,000  Level FlightAware
03:19PM 42.1240 -69.9940 222° Southwest 423 487 36,000  Level FlightAware
03:20PM 42.0510 -70.0850 223° Southwest 425 489 36,000  Level FlightAware
03:21PM 42.0000 -70.1480 223° Southwest 432 497 36,000  Level FlightAware
03:22PM 41.9280 -70.2370 223° Southwest 429 494 36,000  Level FlightAware
03:23PM 41.8630 -70.3420 230° Southwest 426 490 36,000  Level FlightAware
03:24PM 41.7760 -70.4940 233° Southwest 426 490 36,000  Level FlightAware
03:24PM 41.7340 -70.5650 232° Southwest 422 486 36,000  Level FlightAware
03:25PM 41.6810 -70.6570 232° Southwest 426 490 36,000  Level FlightAware
03:26PM 41.6440 -70.7200 232° Southwest 424 488 36,000  Level FlightAware
03:26PM 41.5920 -70.8080 232° Southwest 425 489 36,000  Level FlightAware
03:27PM 41.5530 -70.8750 232° Southwest 423 487 36,000  Level FlightAware
03:27PM 41.5080 -70.9510 232° Southwest 424 488 36,000  Level FlightAware
03:28PM 41.4580 -71.0350 232° Southwest 426 490 36,000  Level FlightAware
03:29PM 41.4150 -71.1090 232° Southwest 426 490 36,000  Level FlightAware
03:29PM 41.3720 -71.1810 232° Southwest 425 489 36,000  Level FlightAware
03:30PM 41.3370 -71.2400 232° Southwest 425 489 36,000  Level FlightAware
03:30PM 41.2860 -71.3260 232° Southwest 425 489 36,000  Level FlightAware
03:31PM 41.2350 -71.4120 232° Southwest 426 490 36,000  Level FlightAware
03:32PM 41.1800 -71.5020 231° Southwest 427 491 36,000  Level FlightAware
03:32PM 41.1420 -71.5660 232° Southwest 428 493 36,000  Level FlightAware
03:33PM 41.0840 -71.6630 232° Southwest 427 491 36,000  Level FlightAware
03:34PM 41.0470 -71.7270 233° Southwest 427 491 36,000  Level FlightAware
03:34PM 40.9880 -71.8210 230° Southwest 431 496 36,000  Level FlightAware
03:35PM 40.9440 -71.8930 231° Southwest 431 496 36,000  Level FlightAware
03:35PM 40.9143 -71.9422 231° Southwest 431 496 36,000  Level FlightAware ADS-B
03:36PM 40.8722 -72.0112 231° Southwest 432 497 36,000  Level FlightAware ADS-B
03:37PM 40.8091 -72.1144 231° Southwest 429 494 36,000  Level FlightAware ADS-B
03:37PM 40.7660 -72.1850 231° Southwest 426 490 36,000  Level FlightAware
03:38PM 40.7260 -72.2490 230° Southwest 425 489 36,000  Level FlightAware
03:39PM 40.6820 -72.3220 232° Southwest 424 488 36,000  Level FlightAware
03:39PM 40.6420 -72.3860 231° Southwest 425 489 36,000  Level FlightAware
03:39PM 40.6180 -72.4250 231° Southwest 426 490 36,000  Level FlightAware
03:40PM 40.5540 -72.5280 231° Southwest 427 491 36,000  Level FlightAware
03:41PM 40.5347 -72.5593 231° Southwest 427 491 36,000  Level FlightAware ADS-B
03:41PM 40.4690 -72.6640 231° Southwest 427 491 36,000  Level FlightAware
03:42PM 40.4340 -72.7210 231° Southwest 426 490 36,000  Level FlightAware
03:42PM 40.4067 -72.7646 231° Southwest 426 490 36,000  Level FlightAware ADS-B
03:43PM 40.3587 -72.8412 231° Southwest 426 490 36,000  Level FlightAware ADS-B
03:43PM 40.3168 -72.9078 230° Southwest 426 490 36,000  Level FlightAware ADS-B
03:44PM 40.2718 -72.9794 231° Southwest 423 487 36,000  Level FlightAware ADS-B
03:45PM 40.2236 -73.0560 231° Southwest 423 487 36,000  Level FlightAware ADS-B
03:45PM 40.1804 -73.1243 230° Southwest 425 489 36,000  Level FlightAware ADS-B
03:46PM 40.1390 -73.1897 230° Southwest 426 490 36,000  Level FlightAware ADS-B
03:47PM 40.0651 -73.2920 227° Southwest 426 490 36,000  Level FlightAware ADS-B
03:47PM 40.0200 -73.3420 220° Southwest 433 498 36,000  Level FlightAware
03:47PM 39.9945 -73.3713 221° Southwest 432 497 36,000  Level FlightAware ADS-B
03:48PM 39.9296 -73.4451 221° Southwest 432 497 36,000  Level FlightAware ADS-B
03:49PM 39.8424 -73.5426 221° Southwest 433 498 36,000  Level FlightAware ADS-B
03:50PM 39.7946 -73.5956 220° Southwest 433 498 36,000  Level FlightAware ADS-B
03:50PM 39.7468 -73.6488 221° Southwest 435 501 36,000  Level FlightAware ADS-B
03:51PM 39.6890 -73.7128 220° Southwest 435 501 36,000  Level FlightAware ADS-B
03:51PM 39.6365 -73.7709 220° Southwest 435 501 36,000  Level FlightAware ADS-B
03:52PM 39.5888 -73.8235 220° Southwest 434 499 36,000  Level FlightAware ADS-B
03:52PM 39.5394 -73.8779 220° Southwest 433 498 36,000  Level FlightAware ADS-B
03:53PM 39.4922 -73.9298 220° Southwest 433 498 36,000  Level FlightAware ADS-B
03:54PM 39.4457 -73.9809 220° Southwest 433 498 36,000  Level FlightAware ADS-B
03:54PM 39.3986 -74.0325 220° Southwest 432 497 36,000  Level FlightAware ADS-B
03:55PM 39.3472 -74.0885 220° Southwest 431 496 36,000  Level FlightAware ADS-B
03:55PM 39.3160 -74.1220 220° Southwest 423 487 36,000  Level FlightAware
03:56PM 39.2477 -74.1969 220° Southwest 430 495 36,000  Level FlightAware ADS-B
03:56PM 39.2025 -74.2461 220° Southwest 429 494 36,000  Level FlightAware ADS-B
03:57PM 39.1567 -74.2959 220° Southwest 428 493 36,000  Level FlightAware ADS-B
03:57PM 39.1109 -74.3456 220° Southwest 427 491 36,000  Level FlightAware ADS-B
03:58PM 39.0639 -74.3964 220° Southwest 427 491 36,000  Level FlightAware ADS-B
03:58PM 39.0176 -74.4463 220° Southwest 427 491 36,000  Level FlightAware ADS-B
03:59PM 38.9699 -74.4978 220° Southwest 427 491 36,000  Level FlightAware ADS-B
03:59PM 38.9237 -74.5474 220° Southwest 428 493 36,000  Level FlightAware ADS-B
04:00PM 38.8776 -74.5969 220° Southwest 429 494 36,000  Level FlightAware ADS-B
04:00PM 38.8500 -74.6270 220° Southwest 421 484 36,000  Level FlightAware
04:01PM 38.8092 -74.6702 220° Southwest 432 497 36,000  Level FlightAware ADS-B
04:01PM 38.7614 -74.7212 220° Southwest 432 497 36,000  Level FlightAware ADS-B
04:02PM 38.7106 -74.7753 220° Southwest 432 497 36,000  Level FlightAware ADS-B
04:02PM 38.6478 -74.8422 220° Southwest 432 497 36,000  Level FlightAware ADS-B
04:03PM 38.6016 -74.8913 220° Southwest 432 497 36,000  Level FlightAware ADS-B
04:03PM 38.5498 -74.9463 220° Southwest 433 498 36,000  Level FlightAware ADS-B
04:04PM 38.4670 -75.0340 220° Southwest 427 491 36,000  Level FlightAware
04:05PM 38.4304 -75.0724 219° Southwest 433 498 36,000  Level FlightAware ADS-B
04:05PM 38.3765 -75.1292 220° Southwest 433 498 36,000  Level FlightAware ADS-B
04:06PM 38.3275 -75.1809 220° Southwest 434 499 36,000  Level FlightAware ADS-B
04:07PM 38.2350 -75.2780 220° Southwest 427 491 36,000  Level FlightAware
04:07PM 38.1850 -75.3300 219° Southwest 427 491 36,000  Level FlightAware
04:08PM 38.1260 -75.3920 220° Southwest 434 499 36,000  Level FlightAware
04:08PM 38.0996 -75.4194 219° Southwest 434 499 36,000  Level FlightAware ADS-B
04:09PM 38.0513 -75.4663 217° Southwest 437 503 36,000  Level FlightAware ADS-B
04:09PM 37.9952 -75.5088 211° Southwest 439 505 36,000  Level FlightAware ADS-B
04:10PM 37.9320 -75.5580 212° Southwest 438 504 36,000  Level FlightAware
04:10PM 37.8761 -75.6009 211° Southwest 440 506 36,000  Level FlightAware ADS-B
04:11PM 37.8194 -75.6437 211° Southwest 440 506 36,000  Level FlightAware ADS-B
04:11PM 37.7667 -75.6834 211° Southwest 442 509 36,000  Level FlightAware ADS-B
04:12PM 37.7138 -75.7232 211° Southwest 443 510 36,000  Level FlightAware ADS-B
04:12PM 37.6594 -75.7640 211° Southwest 443 510 36,000  Level FlightAware ADS-B
04:13PM 37.5750 -75.8280 211° Southwest 448 516 36,000  Level FlightAware
04:14PM 37.5051 -75.8728 207° Southwest 447 514 36,000  Level FlightAware ADS-B
04:14PM 37.4369 -75.9089 203° Southwest 455 524 36,000  Level FlightAware ADS-B
04:15PM 37.3769 -75.9420 204° Southwest 456 525 36,000  Level FlightAware ADS-B
04:15PM 37.3132 -75.9765 203° Southwest 456 525 36,000  Level FlightAware ADS-B
04:16PM 37.2334 -76.0192 203° Southwest 456 525 36,000  Level FlightAware ADS-B
04:17PM 37.1735 -76.0511 203° Southwest 459 528 36,000  Level FlightAware ADS-B
04:17PM 37.1147 -76.0824 203° Southwest 459 528 36,000  Level FlightAware ADS-B
04:18PM 37.0481 -76.1179 203° Southwest 460 529 36,000  Level FlightAware ADS-B
04:18PM 36.9688 -76.1599 203° Southwest 461 531 36,000  Level FlightAware ADS-B
04:19PM 36.8521 -76.2358 207° Southwest 457 526 36,000  Level FlightAware ADS-B
04:20PM 36.7860 -76.2960 216° Southwest 455 524 36,000  Level FlightAware
04:21PM 36.7240 -76.3540 217° Southwest 456 525 36,000  Level FlightAware
04:21PM 36.6690 -76.4040 216° Southwest 457 526 36,000  Level FlightAware
04:22PM 36.5680 -76.4950 216° Southwest 460 529 36,000  Level FlightAware
04:23PM 36.5130 -76.5450 216° Southwest 463 533 36,000  Level FlightAware
04:24PM 36.4300 -76.6200 216° Southwest 463 533 36,000  Level FlightAware
04:24PM 36.3580 -76.6850 216° Southwest 466 536 36,000  Level FlightAware
04:25PM 36.3000 -76.7370 216° Southwest 466 536 36,000  Level FlightAware
04:29PM 35.8840 -77.1060 216° Southwest 482 555 36,000  Level FlightAware
04:29PM 35.8090 -77.1540 207° Southwest 487 560 36,000  Level FlightAware
04:30PM 35.7350 -77.1940 204° Southwest 488 562 36,000  Level FlightAware
04:31PM 35.6720 -77.2290 204° Southwest 488 562 36,000  Level FlightAware
04:31PM 35.6090 -77.2630 204° Southwest 488 562 36,000  Level FlightAware
04:32PM 35.5460 -77.2980 204° Southwest 488 562 36,000  Level FlightAware
04:32PM 35.4810 -77.3330 204° Southwest 488 562 36,000  Level FlightAware
04:33PM 35.4180 -77.3680 204° Southwest 488 562 36,000  Level FlightAware
04:34PM 35.3550 -77.4020 204° Southwest 488 562 36,000  Level FlightAware
04:34PM 35.2920 -77.4370 204° Southwest 488 562 36,000  Level FlightAware
04:35PM 35.2290 -77.4710 204° Southwest 488 562 36,000  Level FlightAware
04:35PM 35.1640 -77.5060 204° Southwest 488 562 36,000  Level FlightAware
04:36PM 35.1010 -77.5410 204° Southwest 488 562 36,000  Level FlightAware
04:37PM 35.0380 -77.5750 204° Southwest 488 562 36,000  Level FlightAware
04:37PM 34.9740 -77.6090 204° Southwest 488 562 36,000  Level FlightAware
04:38PM 34.9080 -77.6450 204° Southwest 488 562 36,000  Level FlightAware
04:39PM 34.8450 -77.6800 205° Southwest 488 562 36,000  Level FlightAware
04:39PM 34.7820 -77.7140 204° Southwest 488 562 36,000  Level FlightAware
04:43PM 34.0490 -77.9620 196° South 502 578 36,000  Level FlightAware
04:44PM 33.9780 -77.9830 194° South 501 577 36,000  Level FlightAware
04:44PM 33.8980 -78.0060 193° South 502 578 36,000  Level FlightAware
04:45PM 33.8140 -78.0300 193° South 501 577 36,000  Level FlightAware
04:45PM 33.7340 -78.0530 193° South 498 573 36,000  Level FlightAware
04:46PM 33.6670 -78.0720 193° South 497 572 36,000  Level FlightAware
04:47PM 33.5740 -78.0980 193° South 497 572 36,000  Level FlightAware
04:47PM 33.6150 -78.0870 13° North 498 573 36,000  Level FlightAware
04:48PM 33.6670 -78.0720 13° North 499 574 36,000  Level FlightAware
04:48PM 33.3390 -78.1660 193° South 499 574 36,000  Level FlightAware
04:49PM 33.2670 -78.1870 194° South 501 577 36,000  Level FlightAware
04:50PM 33.1600 -78.2170 193° South 502 578 36,000  Level FlightAware
04:50PM 33.0780 -78.2400 193° South 501 577 36,000  Level FlightAware
04:51PM 33.0010 -78.2620 193° South 500 575 36,000 180 Level FlightAware
04:52PM 32.8960 -78.2920 193° South 499 574 36,300 420 Climbing FlightAware
04:52PM 32.8220 -78.3130 193° South 503 579 36,600 540 Climbing FlightAware
04:53PM 32.7420 -78.3350 193° South 506 582 36,900 600 Climbing FlightAware
04:54PM 32.6380 -78.3630 193° South 509 586 37,400 600 Climbing FlightAware
04:54PM 32.5710 -78.3730 187° South 509 586 37,700 420 Climbing FlightAware
04:55PM 32.4980 -78.3820 186° South 507 583 37,900 240 Climbing FlightAware
04:55PM 32.4060 -78.3930 186° South 504 580 38,000 60 Climbing FlightAware
04:56PM 32.3110 -78.4030 185° South 502 578 38,000  Level FlightAware
04:56PM 32.2450 -78.4050 181° South 494 568 38,000  Level FlightAware
04:57PM 32.1560 -78.4010 178° South 495 570 38,000  Level FlightAware
04:58PM 32.0370 -78.3770 170° South 494 568 38,000  Level FlightAware
04:59PM 31.9620 -78.3560 167° South 494 568 38,000  Level FlightAware
04:59PM 31.8920 -78.3370 167° South 494 568 38,000  Level FlightAware
05:00PM 31.8230 -78.3190 168° South 494 568 38,000  Level FlightAware
05:00PM 31.7530 -78.3000 167° South 494 568 38,000  Level FlightAware
05:01PM 31.6660 -78.2760 167° South 494 568 38,000  Level FlightAware
05:02PM 31.5980 -78.2580 167° South 494 568 38,000  Level FlightAware
05:02PM 31.5300 -78.2390 167° South 494 568 38,000  Level FlightAware
05:03PM 31.4620 -78.2210 167° South 494 568 38,000  Level FlightAware
05:04PM 31.3940 -78.2020 167° South 494 568 38,000  Level FlightAware
05:04PM 31.3260 -78.1840 167° South 494 568 38,000  Level FlightAware
05:05PM 31.2570 -78.1650 167° South 494 568 38,000  Level FlightAware
05:05PM 31.1890 -78.1470 167° South 494 568 38,000  Level FlightAware
05:06PM 31.1000 -78.1230 167° South 494 568 38,000  Level FlightAware
05:07PM 31.0340 -78.1050 167° South 494 568 38,000  Level FlightAware
05:07PM 30.9660 -78.0870 167° South 494 568 38,000  Level FlightAware
05:09PM 30.6708 -78.3233 167° South 494 568 38,000  Level Jacksonville Center
05:10PM 30.4719 -78.4247 204° Southwest 494 568 38,000  Level Miami Center
05:11PM 30.3442 -78.4875 203° Southwest 500 575 38,000  Level Miami Center
05:12PM 30.2119 -78.5481 202° Southwest 501 577 38,000  Level Miami Center
05:13PM 30.0903 -78.6083 203° Southwest 501 577 38,000  Level Miami Center
05:14PM 29.9394 -78.6825 203° Southwest 494 568 38,000  Level Miami Center
05:15PM 29.8133 -78.7450 203° Southwest 505 581 38,000  Level Miami Center
05:21PM 29.0290 -79.1210 203° Southwest 503 579 38,000  Level FlightAware
05:22PM 28.9610 -79.1520 202° Southwest 503 579 38,000  Level FlightAware
05:23PM 28.8700 -79.1960 203° Southwest 492 566 38,000  Level FlightAware
05:23PM 28.8030 -79.2280 203° Southwest 499 574 38,000  Level FlightAware
05:24PM 28.7310 -79.2620 202° Southwest 499 574 38,000  Level FlightAware
05:25PM 28.6320 -79.3090 203° Southwest 489 563 38,000  Level FlightAware
05:25PM 28.5620 -79.3430 203° Southwest 495 570 38,000  Level FlightAware
05:26PM 28.4950 -79.3740 202° Southwest 487 560 38,000  Level FlightAware
05:26PM 28.4090 -79.4150 203° Southwest 487 560 38,000  Level FlightAware
05:27PM 28.3450 -79.4450 202° Southwest 487 560 38,000  Level FlightAware
05:28PM 28.2460 -79.4920 203° Southwest 488 562 38,000  Level FlightAware
05:28PM 28.1670 -79.5290 202° Southwest 487 560 38,000  Level FlightAware
05:29PM 28.1020 -79.5590 202° Southwest 487 560 38,000  Level FlightAware
05:29PM 28.0240 -79.5960 203° Southwest 488 562 38,000  Level FlightAware
05:30PM 27.9620 -79.6240 202° Southwest 488 562 38,000  Level FlightAware
05:30PM 27.8820 -79.6620 203° Southwest 487 560 38,000  Level FlightAware
05:31PM 27.8100 -79.6950 202° Southwest 491 565 38,000  Level FlightAware
05:32PM 27.7310 -79.7320 203° Southwest 490 564 38,000  Level FlightAware
05:32PM 27.6650 -79.7630 203° Southwest 487 560 38,000  Level FlightAware
05:33PM 27.5900 -79.7970 202° Southwest 487 560 38,000  Level FlightAware
05:33PM 27.5140 -79.8330 203° Southwest 487 560 38,000  Level FlightAware
05:34PM 27.4370 -79.8690 203° Southwest 486 559 38,000  Level FlightAware
05:35PM 27.3720 -79.8980 202° Southwest 485 558 38,000  Level FlightAware
05:35PM 27.2970 -79.9330 203° Southwest 484 557 38,000  Level FlightAware
05:36PM 27.2210 -79.9680 202° Southwest 483 556 38,000  Level FlightAware
05:36PM 27.1460 -80.0020 202° Southwest 473 544 38,000  Level FlightAware
05:37PM 27.0790 -80.0330 202° Southwest 473 544 38,000  Level FlightAware
05:37PM 27.0130 -80.0630 202° Southwest 472 543 38,000  Level FlightAware
05:38PM 26.9390 -80.0970 202° Southwest 479 551 38,000  Level FlightAware
05:39PM 26.8680 -80.1300 203° Southwest 480 552 38,000  Level FlightAware
05:39PM 26.7950 -80.1630 202° Southwest 481 554 38,000  Level FlightAware
05:41PM 26.6220 -80.2410 202° Southwest 481 554 38,000  Level FlightAware
05:42PM 26.4970 -80.2990 203° Southwest 485 558 38,000  Level FlightAware
05:42PM 26.3970 -80.3440 202° Southwest 484 557 38,000  Level FlightAware
05:43PM 26.3220 -80.3780 202° Southwest 474 545 38,000  Level FlightAware
05:44PM 26.2580 -80.4070 202° Southwest 473 544 38,000  Level FlightAware
05:44PM 26.1810 -80.4420 202° Southwest 471 542 38,000  Level FlightAware
05:45PM 26.1060 -80.4770 203° Southwest 469 540 38,000  Level FlightAware
05:45PM 26.0350 -80.5090 202° Southwest 469 540 38,000  Level FlightAware
05:46PM 25.9710 -80.5390 203° Southwest 469 540 38,000  Level FlightAware
05:46PM 25.8990 -80.5730 203° Southwest 468 539 38,000  Level FlightAware
05:47PM 25.8240 -80.6070 202° Southwest 475 547 38,000  Level FlightAware
05:48PM 25.7510 -80.6420 203° Southwest 476 548 38,000 -480 Level FlightAware
05:48PM 25.6780 -80.6760 203° Southwest 473 544 37,500 -1,140 Descending FlightAware
05:49PM 25.6030 -80.7130 204° Southwest 473 544 36,700 -1,920 Descending FlightAware
05:49PM 25.5280 -80.7490 203° Southwest 473 544 35,200 -2,040 Descending FlightAware
05:50PM 25.4640 -80.7810 204° Southwest 463 533 34,400 -1,620 Descending FlightAware
05:51PM 25.3950 -80.8150 204° Southwest 460 529 33,400 -1,380 Descending FlightAware
05:51PM 25.3340 -80.8450 204° Southwest 454 522 32,900 -900 Descending FlightAware
05:52PM 25.2650 -80.8800 205° Southwest 462 532 32,400 -780 Descending FlightAware
05:52PM 25.1920 -80.9160 204° Southwest 451 519 32,000 -600 Descending FlightAware
05:53PM 25.1640 -80.9370 214° Southwest 455 524 31,900 -360 Descending FlightAware
05:53PM 25.1360 -80.9710 228° Southwest 452 520 31,800 -600 Descending FlightAware
05:53PM 25.0960 -81.0270 232° Southwest 443 510 31,400 -780 Descending FlightAware
05:54PM 25.0430 -81.1000 231° Southwest 446 513 30,900 -780 Descending FlightAware
05:55PM 24.9950 -81.1660 231° Southwest 445 512 30,400 -840 Descending FlightAware
05:55PM 24.9500 -81.2280 231° Southwest 439 505 29,900 -900 Descending FlightAware
05:56PM 24.8970 -81.3010 231° Southwest 428 493 29,300 -780 Descending FlightAware
05:57PM 24.8530 -81.3620 232° Southwest 424 488 28,900 -780 Descending FlightAware
05:57PM 24.8070 -81.4250 231° Southwest 426 490 28,400 -960 Descending FlightAware
05:58PM 24.7630 -81.4850 231° Southwest 421 484 27,800 -1,020 Descending FlightAware
05:58PM 24.7240 -81.5380 231° Southwest 419 482 27,300 -1,020 Descending FlightAware
05:59PM 24.6810 -81.5980 232° Southwest 416 479 26,700 -1,020 Descending FlightAware
06:00PM 24.6370 -81.6580 231° Southwest 417 480 26,100 -1,020 Descending FlightAware
06:00PM 24.5930 -81.7180 231° Southwest 416 479 25,500 -1,140 Descending FlightAware
06:01PM 24.5560 -81.7670 230° Southwest 411 473 24,900 -1,140 Descending FlightAware
06:01PM 24.5130 -81.8270 232° Southwest 412 474 24,300 -960 Descending FlightAware
06:02PM 24.4680 -81.8870 231° Southwest 407 468 23,700 -960 Descending FlightAware
06:02PM 24.4300 -81.9390 231° Southwest 406 467 23,200 -1,080 Descending FlightAware
06:03PM 24.3770 -82.0120 231° Southwest 397 457 22,400 -720 Descending FlightAware
06:04PM 24.3340 -82.0710 231° Southwest 399 459 22,200 -180 Descending FlightAware
06:05PM 24.2970 -82.1220 231° Southwest 399 459 22,200 -1,440 Level FlightAware
06:05PM 24.1870 -82.1450 203° Southwest 385 443 20,200 -1,980 Descending FlightAware
06:06PM 24.1150 -82.1790 203° Southwest 370 426 19,200 -780 Descending FlightAware
06:07PM 24.0650 -82.2010 202° Southwest 370 426 19,200 -1,080 Level FlightAware
06:08PM 23.9750 -82.2420 203° Southwest 367 422 17,600 -1,080 Descending FlightAware
06:08PM 23.9270 -82.2640 203° Southwest 367 422 17,600  Level FlightAware
06:09PM 23.8780 -82.2850 201° Southwest 367 422 17,600  Level FlightAware
06:09PM 23.8300 -82.3060 202° Southwest 367 422 17,600  Level FlightAware
06:10PM 23.7820 -82.3270 202° Southwest 367 422 17,600  Level FlightAware
06:11PM 23.7310 -82.3500 202° Southwest 367 422 17,600  Level FlightAware
06:14PM 23.3814 -82.3729 183° South  Level FlightAware Approximate
06:15PM 23.2602 -82.3809 183° South  Level FlightAware Approximate
06:16PM 23.1389 -82.3888 183° South  Level FlightAware Approximate
06:17PM 23.0177 -82.3967 183° South  Level FlightAware Approximate
06:18PM 22.9891 -82.4091 194° South  Level Estimated
06:19PM 22.9891 -82.4091 194° South  Level Estimated
06:20PM 22.9891 -82.4091 194° South  Level Estimated
06:21PM 22.9891 -82.4091 194° South  Level Estimated
06:22PM 22.9891 -82.4091 194° South  Level Estimated
06:23PM 22.9891 -82.4091 194° South  Level Estimated
06:24PM 22.9891 -82.4091 194° South  Level Estimated
06:25PM 22.9891 -82.4091 194° South  Level Estimated
06:26PM 22.9891 -82.4091 194° South  Level Estimated
06:27PM 22.9891 -82.4091 194° South  Level Estimated
06:28PM 22.9891 -82.4091 194° South  Level Estimated
06:29PM 22.9891 -82.4091 194° South  Level Estimated
06:30PM 22.9891 -82.4091 194° South  Level Estimated
06:31PM 22.9891 -82.4091 194° South  Level Estimated
06:32PM 22.9891 -82.4091 194° South  Level Estimated
06:33PM 22.9891 -82.4091 194° South  Level Estimated
06:34PM 22.9891 -82.4091 194° South  Level Estimated
06:35PM 22.9891 -82.4091 194° South  Level Estimated
06:36PM 22.9891 -82.4091 194° South  Level Estimated
06:37PM 22.9891 -82.4091 194° South  Level Estimated
06:38PM 22.9891 -82.4091 194° South  Level Estimated